createdAt,value
2022-09-09T00:01:21.463Z,14.52
2022-09-09T00:04:13.827Z,14.48
2022-09-09T00:07:06.453Z,14.39
2022-09-09T00:10:12.164Z,14.35
2022-09-09T00:13:12.374Z,14.36
2022-09-09T00:16:00.306Z,14.35
2022-09-09T00:18:48.400Z,14.32
2022-09-09T00:21:33.688Z,14.32
2022-09-09T00:24:26.392Z,14.33
2022-09-09T00:27:23.081Z,14.32
2022-09-09T00:30:23.401Z,14.30
2022-09-09T00:33:15.752Z,14.33
2022-09-09T00:36:01.842Z,14.43
2022-09-09T00:38:56.716Z,14.48
2022-09-09T00:41:48.175Z,14.47
2022-09-09T00:44:37.494Z,14.55
2022-09-09T00:47:22.638Z,14.57
2022-09-09T00:50:25.948Z,14.51
2022-09-09T00:53:11.534Z,14.52
2022-09-09T00:56:00.039Z,14.43
2022-09-09T00:58:57.240Z,14.48
2022-09-09T01:01:42.974Z,14.46
2022-09-09T01:04:33.508Z,14.51
2022-09-09T01:07:19.838Z,14.54
2022-09-09T01:10:13.080Z,14.45
2022-09-09T01:13:01.994Z,14.38
2022-09-09T01:15:48.619Z,14.34
2022-09-09T01:18:39.113Z,14.36
2022-09-09T01:21:27.327Z,14.28
2022-09-09T01:24:18.371Z,14.25
2022-09-09T01:27:05.261Z,14.23
2022-09-09T01:29:50.377Z,14.15
2022-09-09T01:32:49.521Z,14.09
2022-09-09T01:35:40.552Z,14.11
2022-09-09T01:38:26.080Z,14.02
2022-09-09T01:41:11.282Z,13.96
2022-09-09T01:43:57.666Z,13.87
2022-09-09T01:46:42.821Z,13.80
2022-09-09T01:49:28.242Z,13.81
2022-09-09T01:52:13.791Z,13.88
2022-09-09T01:54:59.144Z,13.81
2022-09-09T01:57:51.146Z,13.81
2022-09-09T02:00:41.556Z,13.68
2022-09-09T02:03:32.770Z,13.70
2022-09-09T02:06:24.143Z,13.67
2022-09-09T02:09:12.590Z,13.70
2022-09-09T02:12:19.508Z,13.64
2022-09-09T02:15:08.631Z,13.61
2022-09-09T02:17:56.587Z,13.63
2022-09-09T02:20:43.050Z,13.63
2022-09-09T02:23:29.377Z,13.61
2022-09-09T02:26:20.564Z,13.66
2022-09-09T02:29:08.905Z,13.64
2022-09-09T02:31:56.911Z,13.61
2022-09-09T02:34:46.521Z,13.58
2022-09-09T02:37:36.100Z,13.56
2022-09-09T02:40:22.441Z,13.58
2022-09-09T02:43:07.624Z,13.54
2022-09-09T02:46:02.171Z,13.53
2022-09-09T02:48:58.563Z,13.54
2022-09-09T02:51:44.469Z,13.53
2022-09-09T02:54:32.874Z,13.51
2022-09-09T02:57:22.102Z,13.51
2022-09-09T03:00:07.892Z,13.44
2022-09-09T03:02:54.374Z,13.41
2022-09-09T03:05:39.926Z,13.42
2022-09-09T03:08:25.080Z,13.43
2022-09-09T03:11:10.640Z,13.39
2022-09-09T03:13:57.054Z,13.40
2022-09-09T03:16:44.107Z,13.36
2022-09-09T03:19:30.879Z,13.29
2022-09-09T03:22:16.328Z,13.32
2022-09-09T03:25:02.773Z,13.30
2022-09-09T03:27:48.057Z,13.24
2022-09-09T03:30:33.197Z,13.22
2022-09-09T03:33:18.731Z,13.23
2022-09-09T03:36:04.490Z,13.22
2022-09-09T03:38:49.542Z,13.23
2022-09-09T03:41:35.123Z,13.22
2022-09-09T03:44:20.528Z,13.15
2022-09-09T03:47:07.274Z,13.11
2022-09-09T03:49:52.363Z,13.10
2022-09-09T03:52:38.377Z,13.12
2022-09-09T03:55:23.455Z,13.08
2022-09-09T03:58:08.873Z,13.12
2022-09-09T04:00:57.303Z,13.07
2022-09-09T04:03:43.288Z,12.96
2022-09-09T04:06:28.824Z,12.95
2022-09-09T04:09:14.189Z,13.03
2022-09-09T04:11:59.491Z,13.08
2022-09-09T04:14:44.597Z,13.18
2022-09-09T04:17:30.108Z,13.19
2022-09-09T04:20:15.377Z,13.21
2022-09-09T04:23:00.779Z,13.24
2022-09-09T04:25:47.722Z,13.25
2022-09-09T04:28:34.446Z,13.25
2022-09-09T04:31:22.431Z,13.30
2022-09-09T04:34:08.875Z,13.26
2022-09-09T04:36:54.279Z,13.25
2022-09-09T04:39:39.464Z,13.33
2022-09-09T04:42:24.804Z,13.25
2022-09-09T04:45:12.070Z,13.28
2022-09-09T04:47:57.593Z,13.33
2022-09-09T04:50:42.949Z,13.38
2022-09-09T04:53:28.442Z,13.40
2022-09-09T04:56:17.471Z,13.42
2022-09-09T04:59:03.871Z,13.45
2022-09-09T05:01:50.076Z,13.45
2022-09-09T05:04:35.276Z,13.42
2022-09-09T05:07:20.693Z,13.44
2022-09-09T05:10:06.989Z,13.42
2022-09-09T05:12:55.450Z,13.43
2022-09-09T05:15:41.228Z,13.44
2022-09-09T05:18:26.474Z,13.36
2022-09-09T05:21:12.928Z,13.42
2022-09-09T05:23:58.739Z,13.49
2022-09-09T05:26:45.022Z,13.56
2022-09-09T05:29:30.269Z,13.59
2022-09-09T05:32:18.498Z,13.69
2022-09-09T05:35:03.971Z,13.83
2022-09-09T05:37:49.228Z,13.96
2022-09-09T05:40:34.693Z,14.05
2022-09-09T05:43:20.969Z,14.04
2022-09-09T05:46:06.383Z,13.99
2022-09-09T05:48:52.494Z,14.13
2022-09-09T05:51:38.587Z,14.19
2022-09-09T05:54:24.141Z,14.24
2022-09-09T05:57:09.451Z,14.17
2022-09-09T05:59:54.880Z,14.29
2022-09-09T06:02:40.249Z,14.30
2022-09-09T06:05:28.183Z,14.32
2022-09-09T06:08:13.643Z,14.28
2022-09-09T06:11:03.749Z,14.31
2022-09-09T06:13:51.519Z,14.29
2022-09-09T06:16:38.676Z,14.38
2022-09-09T06:19:27.750Z,14.49
2022-09-09T06:22:13.527Z,14.49
2022-09-09T06:24:58.960Z,14.57
2022-09-09T06:27:44.162Z,14.63
2022-09-09T06:30:30.961Z,14.72
2022-09-09T06:33:16.436Z,14.74
2022-09-09T06:36:02.869Z,14.83
2022-09-09T06:38:48.126Z,14.80
2022-09-09T06:41:34.275Z,14.89
2022-09-09T06:44:19.951Z,14.93
2022-09-09T06:47:05.210Z,15.04
2022-09-09T06:49:50.677Z,15.16
2022-09-09T06:52:35.948Z,15.17
2022-09-09T06:55:21.704Z,15.28
2022-09-09T06:58:09.254Z,15.37
2022-09-09T07:01:02.054Z,15.57
2022-09-09T07:03:49.135Z,15.77
2022-09-09T07:06:35.775Z,16.03
2022-09-09T07:09:21.335Z,16.36
2022-09-09T07:12:07.156Z,16.78
2022-09-09T07:14:52.368Z,17.13
2022-09-09T07:17:37.417Z,17.51
2022-09-09T07:20:22.682Z,18.08
2022-09-09T07:23:08.147Z,18.46
2022-09-09T07:25:53.824Z,18.37
2022-09-09T07:28:39.512Z,18.28
2022-09-09T07:31:24.917Z,18.80
2022-09-09T07:34:10.156Z,19.38
2022-09-09T07:36:55.583Z,20.34
2022-09-09T07:39:40.710Z,21.69
2022-09-09T07:42:26.091Z,22.29
2022-09-09T07:45:11.384Z,22.96
2022-09-09T07:47:57.782Z,22.27
2022-09-09T07:50:43.154Z,21.26
2022-09-09T07:53:28.583Z,20.89
2022-09-09T07:56:17.560Z,21.13
2022-09-09T07:59:02.932Z,21.54
2022-09-09T08:01:55.249Z,21.53
2022-09-09T08:04:41.453Z,20.90
2022-09-09T08:07:27.083Z,20.33
2022-09-09T08:10:12.467Z,19.99
2022-09-09T08:13:16.912Z,20.02
2022-09-09T08:16:06.684Z,19.73
2022-09-09T08:18:52.793Z,19.83
2022-09-09T08:21:39.889Z,19.80
2022-09-09T08:24:25.144Z,19.81
2022-09-09T08:27:11.036Z,19.80
2022-09-09T08:29:56.938Z,20.02
2022-09-09T08:32:45.517Z,20.43
2022-09-09T08:35:33.395Z,21.37
2022-09-09T08:38:19.612Z,22.88
2022-09-09T08:41:10.862Z,24.43
2022-09-09T08:44:03.209Z,25.67
2022-09-09T08:47:07.314Z,25.91
2022-09-09T08:50:11.263Z,25.93
2022-09-09T08:52:56.292Z,25.28
2022-09-09T08:55:42.364Z,24.69
2022-09-09T08:58:35.242Z,27.25
2022-09-09T09:01:28.054Z,28.31
2022-09-09T09:04:34.734Z,29.28
2022-09-09T09:07:22.067Z,29.47
2022-09-09T09:10:30.524Z,29.62
2022-09-09T09:13:17.848Z,28.79
2022-09-09T09:16:14.961Z,27.93
2022-09-09T09:19:00.982Z,27.10
2022-09-09T09:21:52.215Z,26.52
2022-09-09T09:24:46.709Z,28.93
2022-09-09T09:27:45.042Z,28.61
2022-09-09T09:30:33.101Z,28.80
2022-09-09T09:33:27.752Z,28.84
2022-09-09T09:36:16.210Z,28.30
2022-09-09T09:42:14.877Z,28.47
2022-09-09T09:45:20.291Z,27.67
2022-09-09T09:48:07.995Z,28.15
2022-09-09T09:51:11.408Z,28.34
2022-09-09T09:54:07.549Z,29.57
2022-09-09T09:56:52.765Z,31.31
2022-09-09T09:59:40.981Z,32.87
2022-09-09T10:02:27.530Z,33.25
2022-09-09T10:05:14.588Z,32.79
2022-09-09T10:08:10.865Z,30.26
2022-09-09T10:11:16.657Z,29.05
2022-09-09T10:14:21.699Z,28.86
2022-09-09T10:17:14.086Z,31.07
2022-09-09T10:20:14.011Z,33.04
2022-09-09T10:23:11.595Z,33.78
2022-09-09T10:26:15.356Z,34.59
2022-09-09T10:29:15.161Z,33.95
2022-09-09T10:32:11.644Z,32.13
2022-09-09T10:34:58.893Z,29.13
2022-09-09T10:37:44.408Z,30.06
2022-09-09T10:40:34.305Z,29.43
2022-09-09T10:43:35.330Z,32.40
2022-09-09T10:46:29.475Z,32.10
2022-09-09T10:49:23.226Z,30.51
2022-09-09T10:52:25.520Z,28.69
2022-09-09T10:55:14.529Z,27.41
2022-09-09T10:58:01.419Z,28.68
2022-09-09T11:00:48.223Z,31.80
2022-09-09T11:03:34.299Z,32.85
2022-09-09T11:06:21.894Z,34.15
2022-09-09T11:09:12.940Z,32.91
2022-09-09T11:11:58.725Z,29.38
2022-09-09T11:14:46.765Z,29.83
2022-09-09T11:17:40.860Z,33.09
2022-09-09T11:20:26.778Z,32.31
2022-09-09T11:23:18.239Z,32.38
2022-09-09T11:26:04.641Z,31.76
2022-09-09T11:29:05.090Z,33.57
2022-09-09T11:31:53.428Z,33.02
2022-09-09T11:35:10.722Z,30.43
2022-09-09T11:38:03.008Z,28.45
2022-09-09T11:40:54.968Z,27.57
2022-09-09T11:43:42.159Z,27.02
2022-09-09T11:46:38.992Z,26.56
2022-09-09T11:49:41.589Z,25.81
2022-09-09T11:52:44.413Z,24.77
2022-09-09T11:55:33.716Z,24.99
2022-09-09T11:58:20.121Z,25.34
2022-09-09T12:01:15.734Z,25.05
2022-09-09T12:04:10.161Z,24.37
2022-09-09T12:07:03.456Z,23.77
2022-09-09T12:09:52.637Z,23.58
2022-09-09T12:12:43.654Z,23.36
2022-09-09T12:15:30.125Z,22.86
2022-09-09T12:18:22.336Z,22.78
2022-09-09T12:21:30.115Z,22.69
2022-09-09T12:24:21.205Z,22.39
2022-09-09T12:27:12.540Z,22.16
2022-09-09T12:30:00.708Z,22.20
2022-09-09T12:32:46.070Z,22.10
2022-09-09T12:35:32.104Z,22.11
2022-09-09T12:38:23.470Z,22.20
2022-09-09T12:41:22.055Z,22.14
2022-09-09T12:44:09.688Z,22.25
2022-09-09T12:46:56.590Z,22.20
2022-09-09T12:49:42.414Z,22.29
2022-09-09T12:52:33.716Z,22.22
2022-09-09T12:55:22.588Z,21.95
2022-09-09T12:58:07.991Z,22.17
2022-09-09T13:00:54.174Z,21.99
2022-09-09T13:03:46.610Z,21.89
2022-09-09T13:06:33.151Z,21.88
2022-09-09T13:09:18.925Z,21.78
2022-09-09T13:12:06.156Z,21.53
2022-09-09T13:14:54.997Z,21.67
2022-09-09T13:17:41.827Z,21.49
2022-09-09T13:20:27.508Z,21.50
2022-09-09T13:23:13.314Z,21.07
2022-09-09T13:25:59.065Z,21.12
2022-09-09T13:28:46.266Z,20.89
2022-09-09T13:31:34.171Z,20.85
2022-09-09T13:34:29.523Z,20.62
2022-09-09T13:37:23.199Z,20.62
2022-09-09T13:40:18.091Z,20.54
2022-09-09T13:43:04.369Z,20.71
2022-09-09T13:45:57.489Z,20.70
2022-09-09T13:48:42.748Z,20.75
2022-09-09T13:51:38.580Z,20.89
2022-09-09T13:54:24.010Z,20.96
2022-09-09T13:57:16.815Z,20.97
2022-09-09T14:00:05.081Z,20.88
2022-09-09T14:02:51.485Z,21.35
2022-09-09T14:05:36.726Z,21.41
2022-09-09T14:08:26.766Z,21.62
2022-09-09T14:11:13.170Z,21.78
2022-09-09T14:13:58.433Z,21.63
2022-09-09T14:16:43.618Z,21.94
2022-09-09T14:19:28.917Z,21.99
2022-09-09T14:22:14.451Z,21.98
2022-09-09T14:24:59.687Z,22.27
2022-09-09T14:27:46.943Z,22.98
2022-09-09T14:30:32.026Z,23.26
2022-09-09T14:33:18.096Z,24.53
2022-09-09T14:36:04.334Z,25.36
2022-09-09T14:38:49.804Z,25.99
2022-09-09T14:41:34.951Z,26.28
2022-09-09T14:44:20.327Z,26.99
2022-09-09T14:47:06.299Z,27.38
2022-09-09T14:49:51.787Z,26.79
2022-09-09T14:52:37.709Z,26.79
2022-09-09T14:55:22.825Z,26.66
2022-09-09T14:58:08.316Z,26.35
2022-09-09T15:00:54.062Z,26.48
2022-09-09T15:03:39.923Z,25.89
2022-09-09T15:06:26.193Z,25.56
2022-09-09T15:09:12.175Z,26.13
2022-09-09T15:11:57.592Z,27.19
2022-09-09T15:14:43.590Z,26.41
2022-09-09T15:17:29.072Z,27.33
2022-09-09T15:20:14.279Z,26.79
2022-09-09T15:22:59.706Z,25.48
2022-09-09T15:25:51.536Z,24.91
2022-09-09T15:28:38.127Z,24.11
2022-09-09T15:31:24.342Z,24.71
2022-09-09T15:34:09.800Z,23.92
2022-09-09T15:36:56.371Z,23.58
2022-09-09T15:39:41.904Z,23.37
2022-09-09T15:42:27.415Z,24.19
2022-09-09T15:45:13.476Z,24.10
2022-09-09T15:47:58.736Z,23.49
2022-09-09T15:50:43.779Z,22.73
2022-09-09T15:53:29.190Z,22.21
2022-09-09T15:56:14.642Z,21.95
2022-09-09T15:59:00.793Z,21.81
2022-09-09T16:01:46.243Z,21.78
2022-09-09T16:04:32.056Z,21.58
2022-09-09T16:07:17.039Z,21.64
2022-09-09T16:10:03.016Z,21.41
2022-09-09T16:12:50.052Z,21.41
2022-09-09T16:15:35.480Z,21.31
2022-09-09T16:18:21.495Z,21.23
2022-09-09T16:21:08.892Z,20.98
2022-09-09T16:23:54.312Z,21.05
2022-09-09T16:26:40.747Z,20.86
2022-09-09T16:29:28.087Z,20.81
2022-09-09T16:32:13.562Z,20.76
2022-09-09T16:34:59.130Z,20.72
2022-09-09T16:37:45.034Z,20.51
2022-09-09T16:40:31.384Z,20.48
2022-09-09T16:43:16.853Z,20.34
2022-09-09T16:46:02.535Z,20.20
2022-09-09T16:48:48.742Z,20.14
2022-09-09T16:51:35.543Z,19.88
2022-09-09T16:54:21.033Z,19.74
2022-09-09T16:57:07.609Z,19.61
2022-09-09T16:59:55.039Z,19.50
2022-09-09T17:02:40.717Z,19.32
2022-09-09T17:05:26.124Z,19.17
2022-09-09T17:08:11.208Z,19.10
2022-09-09T17:10:56.993Z,19.02
2022-09-09T17:13:48.547Z,18.86
2022-09-09T17:16:37.666Z,18.75
2022-09-09T17:19:22.969Z,18.68
2022-09-09T17:22:17.545Z,18.61
2022-09-09T17:25:04.177Z,18.45
2022-09-09T17:27:49.429Z,18.44
2022-09-09T17:30:35.246Z,18.35
2022-09-09T17:33:21.092Z,18.30
2022-09-09T17:36:12.093Z,18.20
2022-09-09T17:38:57.395Z,18.01
2022-09-09T17:41:43.021Z,17.87
2022-09-09T17:44:29.188Z,17.78
2022-09-09T17:47:14.295Z,17.74
2022-09-09T17:49:59.640Z,17.68
2022-09-09T17:52:44.646Z,17.61
2022-09-09T17:55:30.074Z,17.53
2022-09-09T17:58:16.408Z,17.43
2022-09-09T18:01:06.738Z,17.36
2022-09-09T18:03:52.278Z,17.27
2022-09-09T18:06:39.216Z,17.20
2022-09-09T18:09:25.971Z,17.15
2022-09-09T18:12:11.203Z,17.12
2022-09-09T18:14:58.361Z,16.98
2022-09-09T18:17:45.050Z,16.78
2022-09-09T18:20:30.489Z,16.67
2022-09-09T18:23:15.910Z,16.74
2022-09-09T18:26:01.327Z,16.59
2022-09-09T18:28:51.048Z,16.60
2022-09-09T18:31:37.835Z,16.59
2022-09-09T18:34:25.495Z,16.54
2022-09-09T18:37:10.995Z,16.40
2022-09-09T18:39:56.397Z,16.47
2022-09-09T18:42:41.667Z,16.47
2022-09-09T18:45:26.680Z,16.35
2022-09-09T18:48:12.641Z,16.37
2022-09-09T18:51:02.039Z,16.24
2022-09-09T18:53:51.000Z,16.11
2022-09-09T18:56:36.610Z,16.09
2022-09-09T18:59:23.643Z,16.09
2022-09-09T19:02:11.485Z,15.98
2022-09-09T19:04:57.260Z,15.83
2022-09-09T19:07:42.567Z,15.75
2022-09-09T19:10:27.969Z,15.65
2022-09-09T19:13:13.998Z,15.58
2022-09-09T19:16:10.268Z,15.59
2022-09-09T19:18:57.723Z,15.61
2022-09-09T19:21:44.483Z,15.56
2022-09-09T19:24:30.976Z,15.57
2022-09-09T19:27:23.158Z,15.59
2022-09-09T19:30:08.664Z,15.53
2022-09-09T19:32:54.275Z,15.67
2022-09-09T19:35:39.491Z,15.66
2022-09-09T19:38:26.327Z,15.67
2022-09-09T19:41:13.542Z,15.60
2022-09-09T19:44:01.605Z,15.52
2022-09-09T19:46:47.217Z,15.53
2022-09-09T19:49:33.133Z,15.56
2022-09-09T19:52:18.582Z,15.47
2022-09-09T19:55:04.389Z,15.31
2022-09-09T19:57:49.713Z,15.30
2022-09-09T20:00:39.345Z,15.35
2022-09-09T20:03:25.198Z,15.32
2022-09-09T20:06:12.080Z,15.26
2022-09-09T20:08:57.931Z,15.27
2022-09-09T20:11:46.616Z,15.21
2022-09-09T20:14:34.051Z,15.08
2022-09-09T20:17:23.272Z,15.17
2022-09-09T20:20:08.635Z,15.18
2022-09-09T20:22:53.752Z,15.14
2022-09-09T20:25:39.282Z,15.10
2022-09-09T20:28:24.651Z,15.16
2022-09-09T20:31:11.753Z,15.19
2022-09-09T20:33:57.439Z,15.28
2022-09-09T20:36:42.777Z,15.47
2022-09-09T20:39:28.339Z,15.59
2022-09-09T20:42:14.461Z,15.67
2022-09-09T20:44:59.592Z,15.73
2022-09-09T20:47:45.106Z,15.77
2022-09-09T20:50:30.821Z,15.82
2022-09-09T20:53:16.363Z,15.84
2022-09-09T20:56:02.482Z,15.64
2022-09-09T20:58:47.711Z,15.55
2022-09-09T21:01:33.352Z,15.40
2022-09-09T21:04:19.642Z,15.45
2022-09-09T21:07:07.386Z,15.47
2022-09-09T21:09:52.688Z,15.43
2022-09-09T21:12:37.869Z,15.58
2022-09-09T21:15:24.391Z,15.74
2022-09-09T21:18:09.557Z,15.82
2022-09-09T21:20:55.461Z,15.89
2022-09-09T21:23:41.379Z,16.04
2022-09-09T21:26:26.987Z,16.08
2022-09-09T21:29:13.042Z,16.13
2022-09-09T21:31:58.071Z,16.17
2022-09-09T21:34:43.738Z,16.27
2022-09-09T21:37:29.124Z,16.28
2022-09-09T21:40:14.902Z,16.19
2022-09-09T21:43:00.839Z,16.17
2022-09-09T21:45:47.226Z,16.08
2022-09-09T21:48:32.718Z,16.13
2022-09-09T21:51:18.626Z,16.06
2022-09-09T21:54:03.734Z,16.11
2022-09-09T21:56:51.963Z,16.03
2022-09-09T21:59:37.270Z,16.04
2022-09-09T22:02:22.903Z,15.93
2022-09-09T22:05:09.034Z,15.93
2022-09-09T22:07:54.745Z,15.89
2022-09-09T22:10:41.941Z,15.94
2022-09-09T22:13:27.835Z,15.99
2022-09-09T22:16:14.351Z,15.98
2022-09-09T22:19:00.746Z,16.07
2022-09-09T22:21:46.614Z,16.00
2022-09-09T22:24:33.488Z,15.89
2022-09-09T22:27:19.533Z,15.93
2022-09-09T22:30:05.357Z,15.82
2022-09-09T22:32:51.703Z,15.92
2022-09-09T22:35:42.395Z,15.85
2022-09-09T22:38:28.090Z,15.91
2022-09-09T22:41:13.977Z,15.82
2022-09-09T22:43:59.134Z,15.77
2022-09-09T22:46:45.790Z,15.73
2022-09-09T22:49:31.668Z,15.67
2022-09-09T22:52:17.787Z,15.65
2022-09-09T22:55:03.603Z,15.60
2022-09-09T22:57:49.521Z,15.55
2022-09-09T23:00:35.714Z,15.49
2022-09-09T23:03:22.319Z,15.45
2022-09-09T23:06:08.223Z,15.42
2022-09-09T23:08:57.584Z,15.51
2022-09-09T23:11:43.418Z,15.41
2022-09-09T23:14:28.966Z,15.44
2022-09-09T23:17:16.643Z,15.38
2022-09-09T23:20:03.234Z,15.39
2022-09-09T23:22:48.716Z,15.35
2022-09-09T23:25:37.004Z,15.26
2022-09-09T23:28:22.482Z,15.22
2022-09-09T23:31:13.363Z,15.23
2022-09-09T23:34:00.671Z,15.32
2022-09-09T23:36:47.269Z,15.35
2022-09-09T23:39:33.494Z,15.38
2022-09-09T23:42:18.941Z,15.39
2022-09-09T23:45:04.731Z,15.30
2022-09-09T23:47:50.340Z,15.21
2022-09-09T23:50:36.570Z,15.21
2022-09-09T23:53:22.696Z,15.13
2022-09-09T23:56:09.582Z,15.12
2022-09-09T23:58:55.300Z,15.15
